Alamo Heights, Texas
Current Conditions -  °F | °C
As of 8:51 PM on Wednesday 26 Nov 2014 (Local Time) from KSAT Reporting Station
Clear Clear  
Wind Chill: 52°   Ceiling: Unl
Heat Index: 52°   Visibility: 10mi
Dew Point: 41°   Wind: 7mph
Humidity: 66%   Direction: 300°WNW
Pressure: 30.28"   Gusts: NA
Location:  29.4797°N, 98.4508°W
Report Text: KSAT 270251Z 30006KT 10SM CLR 11/05 A3028 RMK AO2 SLP244 T01110050 52025
Loading
Personal Weather Stations






























Interactive Weather Map New forecast layout! Learn more

10-Day Weather Forecast

Advertisements
Track Severe Weather on mobile